createdAt,value
2022-12-14T00:01:40.368Z,14.13
2022-12-14T00:04:07.732Z,16.00
2022-12-14T00:06:35.229Z,13.67
2022-12-14T00:09:04.863Z,14.63
2022-12-14T00:11:33.880Z,13.00
2022-12-14T00:14:02.005Z,17.63
2022-12-14T00:16:30.492Z,16.63
2022-12-14T00:18:58.522Z,14.57
2022-12-14T00:21:26.331Z,14.27
2022-12-14T00:23:54.157Z,18.40
2022-12-14T00:26:22.572Z,14.40
2022-12-14T00:28:50.715Z,13.27
2022-12-14T00:31:18.484Z,10.47
2022-12-14T00:33:46.109Z,18.70
2022-12-14T00:36:14.258Z,10.90
2022-12-14T00:38:42.071Z,14.60
2022-12-14T00:41:10.319Z,12.40
2022-12-14T00:43:38.019Z,15.57
2022-12-14T00:46:06.181Z,11.60
2022-12-14T00:48:33.929Z,13.27
2022-12-14T00:51:01.454Z,13.40
2022-12-14T00:53:28.783Z,11.40
2022-12-14T00:55:56.110Z,11.60
2022-12-14T00:58:24.892Z,13.83
2022-12-14T01:01:02.585Z,11.60
2022-12-14T01:03:30.595Z,12.60
2022-12-14T01:05:58.827Z,13.23
2022-12-14T01:08:26.211Z,13.67
2022-12-14T01:10:53.587Z,18.10
2022-12-14T01:13:21.043Z,10.60
2022-12-14T01:15:48.606Z,9.73
2022-12-14T01:18:16.024Z,9.63
2022-12-14T01:20:43.483Z,11.30
2022-12-14T01:23:10.902Z,27.23
2022-12-14T01:25:38.334Z,11.87
2022-12-14T01:28:05.871Z,9.47
2022-12-14T01:30:33.271Z,12.47
2022-12-14T01:33:00.769Z,11.60
2022-12-14T01:35:28.113Z,10.37
2022-12-14T01:37:58.764Z,13.33
2022-12-14T01:40:26.245Z,11.57
2022-12-14T01:42:53.661Z,11.07
2022-12-14T01:45:22.234Z,10.17
2022-12-14T01:47:55.883Z,16.40
2022-12-14T01:50:26.990Z,12.93
2022-12-14T01:52:58.664Z,13.00
2022-12-14T01:55:29.083Z,11.00
2022-12-14T01:58:08.732Z,9.17
2022-12-14T02:00:36.147Z,7.93
2022-12-14T02:03:08.006Z,9.87
2022-12-14T02:05:38.368Z,16.63
2022-12-14T02:08:06.108Z,12.53
2022-12-14T02:10:34.808Z,15.33
2022-12-14T02:13:07.381Z,11.70
2022-12-14T02:15:36.698Z,12.13
2022-12-14T02:18:05.370Z,11.33
2022-12-14T02:20:36.358Z,14.40
2022-12-14T02:23:16.452Z,12.73
2022-12-14T02:26:01.577Z,11.50
2022-12-14T02:28:47.691Z,11.97
2022-12-14T02:31:21.601Z,11.63
2022-12-14T02:33:49.032Z,9.87
2022-12-14T02:36:29.861Z,11.77
2022-12-14T02:39:04.716Z,11.40
2022-12-14T02:41:42.420Z,11.33
2022-12-14T02:44:23.377Z,12.07
2022-12-14T02:47:04.499Z,11.43
2022-12-14T02:49:31.937Z,10.13
2022-12-14T02:52:07.101Z,10.67
2022-12-14T02:54:48.973Z,11.13
2022-12-14T02:57:26.154Z,15.67
2022-12-14T02:59:55.843Z,11.00
2022-12-14T03:02:24.651Z,8.50
2022-12-14T03:04:53.506Z,10.40
2022-12-14T03:07:32.453Z,11.63
2022-12-14T03:10:02.582Z,9.53
2022-12-14T03:12:29.778Z,8.97
2022-12-14T03:14:59.874Z,9.83
2022-12-14T03:17:29.667Z,9.30
2022-12-14T03:19:58.676Z,12.13
2022-12-14T03:22:28.263Z,11.47
2022-12-14T03:24:59.055Z,18.93
2022-12-14T03:27:29.958Z,14.10
2022-12-14T03:30:00.013Z,10.63
2022-12-14T03:32:29.030Z,10.87
2022-12-14T03:34:59.619Z,9.93
2022-12-14T03:37:41.173Z,12.73
2022-12-14T03:40:10.408Z,10.90
2022-12-14T03:42:37.524Z,13.00
2022-12-14T03:45:07.940Z,8.70
2022-12-14T03:47:44.610Z,8.60
2022-12-14T03:50:25.206Z,11.60
2022-12-14T03:53:01.266Z,9.03
2022-12-14T03:55:41.509Z,10.50
2022-12-14T03:58:14.639Z,10.70
2022-12-14T04:00:47.035Z,9.23
2022-12-14T04:03:31.194Z,8.43
2022-12-14T04:06:04.847Z,11.30
2022-12-14T04:08:35.737Z,11.30
2022-12-14T04:11:24.277Z,10.07
2022-12-14T04:14:15.661Z,9.70
2022-12-14T04:17:03.756Z,11.07
2022-12-14T04:19:35.741Z,13.80
2022-12-14T04:22:05.589Z,9.20
2022-12-14T04:25:10.792Z,14.67
2022-12-14T04:27:40.341Z,12.30
2022-12-14T04:30:08.716Z,15.60
2022-12-14T04:32:49.513Z,12.17
2022-12-14T04:35:21.814Z,11.07
2022-12-14T04:37:51.194Z,10.13
2022-12-14T04:40:26.775Z,11.30
2022-12-14T04:43:00.033Z,12.00
2022-12-14T04:45:30.723Z,10.47
2022-12-14T04:48:04.007Z,9.60
2022-12-14T04:50:34.810Z,13.57
2022-12-14T04:53:05.397Z,11.90
2022-12-14T04:55:36.214Z,9.97
2022-12-14T04:58:08.964Z,12.30
2022-12-14T05:00:38.186Z,12.30
2022-12-14T05:03:24.616Z,13.00
2022-12-14T05:06:14.979Z,13.63
2022-12-14T05:08:56.928Z,14.20
2022-12-14T05:14:27.395Z,11.97
2022-12-14T05:16:54.854Z,16.63
2022-12-14T05:19:26.209Z,14.43
2022-12-14T05:21:54.136Z,12.10
2022-12-14T05:24:22.508Z,19.53
2022-12-14T05:26:49.729Z,15.37
2022-12-14T05:29:17.699Z,18.43
2022-12-14T05:31:49.361Z,13.03
2022-12-14T05:34:17.162Z,13.67
2022-12-14T05:36:44.373Z,16.83
2022-12-14T05:39:11.530Z,12.80
2022-12-14T05:41:38.693Z,14.67
2022-12-14T05:44:05.848Z,12.97
2022-12-14T05:46:33.177Z,13.40
2022-12-14T05:49:00.341Z,23.50
2022-12-14T05:51:27.500Z,17.60
2022-12-14T05:53:55.332Z,16.57
2022-12-14T05:56:22.534Z,21.57
2022-12-14T05:58:50.561Z,16.40
2022-12-14T06:01:19.545Z,15.33
2022-12-14T06:03:47.436Z,14.50
2022-12-14T06:06:15.987Z,13.30
2022-12-14T06:08:45.283Z,14.10
2022-12-14T06:11:16.850Z,12.87
2022-12-14T06:13:44.112Z,20.23
2022-12-14T06:16:18.938Z,20.10
2022-12-14T06:18:53.182Z,19.47
2022-12-14T06:21:21.505Z,17.77
2022-12-14T06:23:48.750Z,15.63
2022-12-14T06:26:16.689Z,16.17
2022-12-14T06:28:44.089Z,15.40
2022-12-14T06:31:16.426Z,19.27
2022-12-14T06:33:43.688Z,20.33
2022-12-14T06:36:17.760Z,14.00
2022-12-14T06:38:45.186Z,12.27
2022-12-14T06:41:13.117Z,13.00
2022-12-14T06:43:40.292Z,14.90
2022-12-14T06:46:15.169Z,14.00
2022-12-14T06:48:43.182Z,14.73
2022-12-14T06:51:10.357Z,13.27
2022-12-14T06:53:37.558Z,17.97
2022-12-14T06:56:08.155Z,13.23
2022-12-14T06:58:35.527Z,31.23
2022-12-14T07:01:04.077Z,24.77
2022-12-14T07:03:31.884Z,22.17
2022-12-14T07:05:59.994Z,22.87
2022-12-14T07:08:27.730Z,13.83
2022-12-14T07:11:00.523Z,18.90
2022-12-14T07:13:29.736Z,17.20
2022-12-14T07:15:57.824Z,19.63
2022-12-14T07:18:25.106Z,13.53
2022-12-14T07:20:59.151Z,15.97
2022-12-14T07:23:28.190Z,13.90
2022-12-14T07:26:00.897Z,20.00
2022-12-14T07:28:28.411Z,16.90
2022-12-14T07:30:56.348Z,17.27
2022-12-14T07:33:23.560Z,17.90
2022-12-14T07:35:53.728Z,17.53
2022-12-14T07:38:20.920Z,15.37
2022-12-14T07:40:48.115Z,14.60
2022-12-14T07:43:15.279Z,15.63
2022-12-14T07:45:43.468Z,16.00
2022-12-14T07:48:10.603Z,16.20
2022-12-14T07:50:37.747Z,15.90
2022-12-14T07:53:07.575Z,18.50
2022-12-14T07:55:35.618Z,15.60
2022-12-14T07:58:02.768Z,22.80
2022-12-14T08:00:29.913Z,17.93
2022-12-14T08:02:58.147Z,16.43
2022-12-14T08:05:25.341Z,14.17
2022-12-14T08:07:54.617Z,21.50
2022-12-14T08:10:21.757Z,17.63
2022-12-14T08:12:50.482Z,16.80
2022-12-14T08:15:18.426Z,20.60
2022-12-14T08:17:56.975Z,14.30
2022-12-14T08:20:24.150Z,12.60
2022-12-14T08:22:52.182Z,15.10
2022-12-14T08:25:24.609Z,16.77
2022-12-14T08:27:54.441Z,21.17
2022-12-14T08:30:21.645Z,17.90
2022-12-14T08:32:48.788Z,14.90
2022-12-14T08:35:16.580Z,17.60
2022-12-14T08:37:47.452Z,18.40
2022-12-14T08:40:14.978Z,18.80
2022-12-14T08:42:42.155Z,17.70
2022-12-14T08:45:09.525Z,19.90
2022-12-14T08:47:36.704Z,15.47
2022-12-14T08:50:05.251Z,19.47
2022-12-14T08:52:32.409Z,20.70
2022-12-14T08:54:59.930Z,17.80
2022-12-14T08:57:27.613Z,24.67
2022-12-14T09:00:03.315Z,20.47
2022-12-14T09:02:31.312Z,23.53
2022-12-14T09:04:58.516Z,17.90
2022-12-14T09:07:25.720Z,17.77
2022-12-14T09:09:52.858Z,22.53
2022-12-14T09:12:20.684Z,20.90
2022-12-14T09:14:49.744Z,15.80
2022-12-14T09:17:17.592Z,22.33
2022-12-14T09:19:44.894Z,20.20
2022-12-14T09:22:13.347Z,21.23
2022-12-14T09:24:40.537Z,18.07
2022-12-14T09:27:08.810Z,17.33
2022-12-14T09:29:36.021Z,17.03
2022-12-14T09:32:03.239Z,18.97
2022-12-14T09:34:30.538Z,19.57
2022-12-14T09:36:57.841Z,20.17
2022-12-14T09:39:25.231Z,18.80
2022-12-14T09:42:11.314Z,20.53
2022-12-14T09:44:49.626Z,18.13
2022-12-14T09:47:16.984Z,17.00
2022-12-14T09:49:49.678Z,20.60
2022-12-14T09:52:23.298Z,20.37
2022-12-14T09:54:52.297Z,18.37
2022-12-14T09:57:28.268Z,18.07
2022-12-14T09:59:55.876Z,17.70
2022-12-14T10:02:31.709Z,20.27
2022-12-14T10:05:18.994Z,20.17
2022-12-14T10:07:52.509Z,20.30
2022-12-14T10:10:21.459Z,16.17
2022-12-14T10:13:00.391Z,15.87
2022-12-14T10:15:31.652Z,22.27
2022-12-14T10:17:58.795Z,20.03
2022-12-14T10:20:38.225Z,17.60
2022-12-14T10:23:05.726Z,20.67
2022-12-14T10:25:33.833Z,18.20
2022-12-14T10:28:13.113Z,20.47
2022-12-14T10:30:43.711Z,19.43
2022-12-14T10:33:24.690Z,17.30
2022-12-14T10:35:56.091Z,20.20
2022-12-14T10:38:27.679Z,22.43
2022-12-14T10:40:59.255Z,19.10
2022-12-14T10:43:43.933Z,16.07
2022-12-14T10:46:14.180Z,15.13
2022-12-14T10:48:47.170Z,17.87
2022-12-14T10:51:31.021Z,18.70
2022-12-14T10:54:11.688Z,18.00
2022-12-14T10:56:41.094Z,16.63
2022-12-14T10:59:31.154Z,18.03
2022-12-14T11:02:19.095Z,17.37
2022-12-14T11:04:51.469Z,14.73
2022-12-14T11:07:20.103Z,16.90
2022-12-14T11:09:47.660Z,21.47
2022-12-14T11:12:16.322Z,19.57
2022-12-14T11:14:52.287Z,19.33
2022-12-14T11:17:39.884Z,20.10
2022-12-14T11:20:10.495Z,20.67
2022-12-14T11:22:48.166Z,21.20
2022-12-14T11:25:29.415Z,17.73
2022-12-14T11:27:57.201Z,22.17
2022-12-14T11:30:24.429Z,18.10
2022-12-14T11:32:52.980Z,21.47
2022-12-14T11:35:20.923Z,16.47
2022-12-14T11:37:51.591Z,21.50
2022-12-14T11:40:20.764Z,18.13
2022-12-14T11:42:51.693Z,18.60
2022-12-14T11:45:28.270Z,16.57
2022-12-14T11:48:14.277Z,18.73
2022-12-14T11:50:42.844Z,15.43
2022-12-14T11:53:11.838Z,17.17
2022-12-14T11:55:40.999Z,18.73
2022-12-14T11:58:16.575Z,19.47
2022-12-14T12:00:46.981Z,18.10
2022-12-14T12:03:20.818Z,24.30
2022-12-14T12:05:48.020Z,22.40
2022-12-14T12:08:20.575Z,19.97
2022-12-14T12:10:49.862Z,24.83
2022-12-14T12:13:29.105Z,20.27
2022-12-14T12:15:58.762Z,20.10
2022-12-14T12:18:33.645Z,22.93
2022-12-14T12:21:01.074Z,21.87
2022-12-14T12:23:39.051Z,23.43
2022-12-14T12:26:22.000Z,20.87
2022-12-14T12:28:53.915Z,23.17
2022-12-14T12:31:28.512Z,22.93
2022-12-14T12:34:02.958Z,21.10
2022-12-14T12:36:32.181Z,20.43
2022-12-14T12:39:02.216Z,21.83
2022-12-14T12:41:47.064Z,19.60
2022-12-14T12:44:17.640Z,20.80
2022-12-14T12:47:22.999Z,22.67
2022-12-14T12:49:39.963Z,22.83
2022-12-14T12:52:14.448Z,21.90
2022-12-14T12:54:44.468Z,19.23
2022-12-14T12:57:12.547Z,21.53
2022-12-14T12:59:45.065Z,26.73
2022-12-14T13:02:32.680Z,23.07
2022-12-14T13:05:22.031Z,21.17
2022-12-14T13:07:52.096Z,26.37
2022-12-14T13:11:17.367Z,18.60
2022-12-14T13:13:37.407Z,20.87
2022-12-14T13:16:36.438Z,20.20
2022-12-14T13:19:40.957Z,22.47
2022-12-14T13:22:03.348Z,18.57
2022-12-14T13:24:32.594Z,20.17
2022-12-14T13:26:59.711Z,16.47
2022-12-14T13:29:34.111Z,20.27
2022-12-14T13:32:04.065Z,22.00
2022-12-14T13:34:50.049Z,22.30
2022-12-14T13:37:36.206Z,21.67
2022-12-14T13:40:18.777Z,19.27
2022-12-14T13:42:58.191Z,21.70
2022-12-14T13:45:30.069Z,19.63
2022-12-14T13:47:58.606Z,15.70
2022-12-14T13:50:37.560Z,19.87
2022-12-14T13:53:12.736Z,16.63
2022-12-14T13:55:46.905Z,18.30
2022-12-14T13:58:19.973Z,16.83
2022-12-14T14:00:47.348Z,23.77
2022-12-14T14:06:37.151Z,22.30
2022-12-14T14:09:24.223Z,16.60
2022-12-14T14:12:10.651Z,18.37
2022-12-14T14:14:50.698Z,16.43
2022-12-14T14:17:38.159Z,23.23
2022-12-14T14:20:25.299Z,20.80
2022-12-14T14:23:12.706Z,17.43
2022-12-14T14:25:45.960Z,18.73
2022-12-14T14:28:23.038Z,22.00
2022-12-14T14:30:59.657Z,19.50
2022-12-14T14:33:48.190Z,20.57
2022-12-14T14:36:19.018Z,18.00
2022-12-14T14:38:46.225Z,21.70
2022-12-14T14:41:23.240Z,16.70
2022-12-14T14:43:57.806Z,18.27
2022-12-14T14:46:43.983Z,18.90
2022-12-14T14:49:28.650Z,20.80
2022-12-14T14:51:56.153Z,18.90
2022-12-14T14:55:15.885Z,18.40
2022-12-14T14:57:30.602Z,17.10
2022-12-14T15:00:02.188Z,23.30
2022-12-14T15:02:34.120Z,19.20
2022-12-14T15:05:24.751Z,20.33
2022-12-14T15:07:49.396Z,18.43
2022-12-14T15:10:22.383Z,19.10
2022-12-14T15:12:51.793Z,19.93
2022-12-14T15:15:19.041Z,20.50
2022-12-14T15:17:46.331Z,19.70
2022-12-14T15:20:21.929Z,21.13
2022-12-14T15:22:49.639Z,18.03
2022-12-14T15:25:21.234Z,21.47
2022-12-14T15:27:48.550Z,21.03
2022-12-14T15:30:23.357Z,17.13
2022-12-14T15:32:55.591Z,24.20
2022-12-14T15:35:27.373Z,23.90
2022-12-14T15:37:59.953Z,19.03
2022-12-14T15:40:31.291Z,23.03
2022-12-14T15:42:58.426Z,19.97
2022-12-14T15:45:30.140Z,18.17
2022-12-14T15:48:18.703Z,21.23
2022-12-14T15:50:48.619Z,18.30
2022-12-14T15:53:19.522Z,21.13
2022-12-14T15:55:52.366Z,20.80
2022-12-14T15:58:36.274Z,22.67
2022-12-14T16:01:09.705Z,21.23
2022-12-14T16:03:40.498Z,18.87
2022-12-14T16:06:09.851Z,20.60
2022-12-14T16:08:38.080Z,19.73
2022-12-14T16:11:06.928Z,23.17
2022-12-14T16:13:36.222Z,20.50
2022-12-14T16:16:08.915Z,20.07
2022-12-14T16:18:40.083Z,19.67
2022-12-14T16:21:07.472Z,17.53
2022-12-14T16:23:40.459Z,17.40
2022-12-14T16:26:15.385Z,22.07
2022-12-14T16:28:44.804Z,18.47
2022-12-14T16:31:20.364Z,22.20
2022-12-14T16:33:50.473Z,17.90
2022-12-14T16:36:20.555Z,16.50
2022-12-14T16:38:59.778Z,22.23
2022-12-14T16:41:39.011Z,17.87
2022-12-14T16:44:08.153Z,19.20
2022-12-14T16:46:35.374Z,24.50
2022-12-14T16:49:23.151Z,16.60
2022-12-14T16:52:08.186Z,16.90
2022-12-14T16:54:36.228Z,17.43
2022-12-14T16:57:05.569Z,18.20
2022-12-14T16:59:39.291Z,17.50
2022-12-14T17:02:09.405Z,20.80
2022-12-14T17:04:40.043Z,18.00
2022-12-14T17:07:07.472Z,17.83
2022-12-14T17:09:35.565Z,18.87
2022-12-14T17:12:07.661Z,20.47
2022-12-14T17:14:34.798Z,28.80
2022-12-14T17:17:02.606Z,23.77
2022-12-14T17:19:39.652Z,26.10
2022-12-14T17:22:10.184Z,25.07
2022-12-14T17:24:38.005Z,26.40
2022-12-14T17:27:05.196Z,19.37
2022-12-14T17:29:33.369Z,18.17
2022-12-14T17:32:03.507Z,22.90
2022-12-14T17:34:30.981Z,28.47
2022-12-14T17:36:58.267Z,25.80
2022-12-14T17:39:25.464Z,29.93
2022-12-14T17:41:53.650Z,25.53
2022-12-14T17:44:21.561Z,27.83
2022-12-14T17:46:49.764Z,27.10
2022-12-14T17:49:17.016Z,22.37
2022-12-14T17:51:46.151Z,26.87
2022-12-14T17:54:15.147Z,24.63
2022-12-14T17:56:43.612Z,27.63
2022-12-14T17:59:10.779Z,30.10
2022-12-14T18:01:38.046Z,25.30
2022-12-14T18:04:05.854Z,29.20
2022-12-14T18:06:33.088Z,26.53
2022-12-14T18:09:00.324Z,28.00
2022-12-14T18:11:27.956Z,31.93
2022-12-14T18:13:55.859Z,30.47
2022-12-14T18:16:24.576Z,31.20
2022-12-14T18:18:57.959Z,31.00
2022-12-14T18:21:27.940Z,37.33
2022-12-14T18:23:57.234Z,43.07
2022-12-14T18:26:24.476Z,39.90
2022-12-14T18:28:53.592Z,35.93
2022-12-14T18:31:24.357Z,36.27
2022-12-14T18:33:51.615Z,33.77
2022-12-14T18:36:21.311Z,39.83
2022-12-14T18:38:49.436Z,28.27
2022-12-14T18:41:17.835Z,34.23
2022-12-14T18:43:46.123Z,30.70
2022-12-14T18:46:13.828Z,43.03
2022-12-14T18:48:41.780Z,27.00
2022-12-14T18:51:23.032Z,28.37
2022-12-14T18:53:51.181Z,30.73
2022-12-14T18:56:21.968Z,29.47
2022-12-14T18:58:49.516Z,32.97
2022-12-14T19:01:17.785Z,25.40
2022-12-14T19:03:45.688Z,31.53
2022-12-14T19:09:13.716Z,27.30
2022-12-14T19:11:42.299Z,29.83
2022-12-14T19:14:09.680Z,31.63
2022-12-14T19:16:36.903Z,42.77
2022-12-14T19:19:04.098Z,28.77
2022-12-14T19:21:31.510Z,35.20
2022-12-14T19:24:00.043Z,32.83
2022-12-14T19:26:28.252Z,30.20
2022-12-14T19:28:55.462Z,31.47
2022-12-14T19:31:22.702Z,28.73
2022-12-14T19:33:51.177Z,34.33
2022-12-14T19:36:18.441Z,29.67
2022-12-14T19:38:49.051Z,29.63
2022-12-14T19:41:20.192Z,34.47
2022-12-14T19:43:47.757Z,34.90
2022-12-14T19:46:16.066Z,33.23
2022-12-14T19:48:43.418Z,30.10
2022-12-14T19:51:12.270Z,34.90
2022-12-14T19:53:40.580Z,31.23
2022-12-14T19:56:09.028Z,36.67
2022-12-14T19:58:36.554Z,31.13
2022-12-14T20:01:08.092Z,32.30
2022-12-14T20:03:36.089Z,39.43
2022-12-14T20:06:04.036Z,32.00
2022-12-14T20:08:31.475Z,31.93
2022-12-14T20:11:04.135Z,31.17
2022-12-14T20:13:31.718Z,28.40
2022-12-14T20:15:59.421Z,34.67
2022-12-14T20:18:27.157Z,38.07
2022-12-14T20:21:06.484Z,35.63
2022-12-14T20:23:37.760Z,25.60
2022-12-14T20:26:06.564Z,31.53
2022-12-14T20:28:34.083Z,33.10
2022-12-14T20:31:05.554Z,32.13
2022-12-14T20:33:33.827Z,30.13
2022-12-14T20:36:01.370Z,32.40
2022-12-14T20:38:28.544Z,33.60
2022-12-14T20:40:56.389Z,40.37
2022-12-14T20:43:23.552Z,32.07
2022-12-14T20:45:51.638Z,28.50
2022-12-14T20:48:18.866Z,32.03
2022-12-14T20:50:50.419Z,27.43
2022-12-14T20:53:19.160Z,34.57
2022-12-14T20:55:46.342Z,34.40
2022-12-14T20:58:13.467Z,35.73
2022-12-14T21:00:40.666Z,28.53
2022-12-14T21:03:08.677Z,30.03
2022-12-14T21:05:40.557Z,33.47
2022-12-14T21:08:08.132Z,38.50
2022-12-14T21:10:35.668Z,32.00
2022-12-14T21:13:07.385Z,30.53
2022-12-14T21:15:35.503Z,31.97
2022-12-14T21:18:02.955Z,33.37
2022-12-14T21:20:31.313Z,38.77
2022-12-14T21:22:58.474Z,32.33
2022-12-14T21:25:25.658Z,38.53
2022-12-14T21:27:53.207Z,37.90
2022-12-14T21:30:20.481Z,33.63
2022-12-14T21:32:47.657Z,36.03
2022-12-14T21:35:18.753Z,37.87
2022-12-14T21:37:45.921Z,35.87
2022-12-14T21:40:33.182Z,34.60
2022-12-14T21:43:00.306Z,29.20
2022-12-14T21:45:27.562Z,37.10
2022-12-14T21:47:54.831Z,37.77
2022-12-14T21:50:22.013Z,39.23
2022-12-14T21:52:49.204Z,34.53
2022-12-14T21:55:16.388Z,38.40
2022-12-14T21:58:02.076Z,30.73
2022-12-14T22:00:29.255Z,41.90
2022-12-14T22:02:56.541Z,34.10
2022-12-14T22:05:24.152Z,34.97
2022-12-14T22:07:51.787Z,40.43
2022-12-14T22:10:24.589Z,36.95
2022-12-14T22:12:52.405Z,42.42
2022-12-14T22:15:19.583Z,42.00
2022-12-14T22:17:49.491Z,49.33
2022-12-14T22:20:16.679Z,43.22
2022-12-14T22:22:44.770Z,42.50
2022-12-14T22:25:13.341Z,43.20
2022-12-14T22:27:40.553Z,47.20
2022-12-14T22:30:09.498Z,41.60
2022-12-14T22:32:38.973Z,40.88
2022-12-14T22:35:06.342Z,47.35
2022-12-14T22:37:33.535Z,46.90
2022-12-14T22:40:01.014Z,44.63
2022-12-14T22:42:28.345Z,46.63
2022-12-14T22:44:55.673Z,47.83
2022-12-14T22:47:23.594Z,48.83
2022-12-14T22:49:50.767Z,46.70
2022-12-14T22:52:24.341Z,40.03
2022-12-14T22:54:51.925Z,47.25
2022-12-14T22:57:19.492Z,50.35
2022-12-14T23:00:11.546Z,41.93
2022-12-14T23:02:39.640Z,48.30
2022-12-14T23:05:08.128Z,44.60
2022-12-14T23:07:35.638Z,41.75
2022-12-14T23:10:22.030Z,38.80
2022-12-14T23:13:08.657Z,45.72
2022-12-14T23:15:55.163Z,43.75
2022-12-14T23:18:41.140Z,43.42
2022-12-14T23:21:31.536Z,46.30
2022-12-14T23:24:18.426Z,44.40
2022-12-14T23:27:09.325Z,46.60
2022-12-14T23:29:56.140Z,40.95
2022-12-14T23:32:43.050Z,43.47
2022-12-14T23:35:29.254Z,44.65
2022-12-14T23:38:15.016Z,44.58
2022-12-14T23:41:01.108Z,48.92
2022-12-14T23:43:48.312Z,42.20
2022-12-14T23:46:34.677Z,40.55
2022-12-14T23:49:20.638Z,48.72
2022-12-14T23:52:06.598Z,42.70
2022-12-14T23:54:52.973Z,45.50
2022-12-14T23:57:38.888Z,42.65
